createdAt,value
2019-05-07T00:00:29.013Z,1007.40
2019-05-07T00:01:28.991Z,1007.39
2019-05-07T00:02:29.035Z,1007.39
2019-05-07T00:03:29.029Z,1007.37
2019-05-07T00:04:29.022Z,1007.35
2019-05-07T00:05:28.994Z,1007.33
2019-05-07T00:06:29.106Z,1007.33
2019-05-07T00:07:29.099Z,1007.32
2019-05-07T00:08:29.101Z,1007.35
2019-05-07T00:09:29.055Z,1007.34
2019-05-07T00:10:29.029Z,1007.31
2019-05-07T00:11:29.049Z,1007.32
2019-05-07T00:12:29.034Z,1007.32
2019-05-07T00:13:29.102Z,1007.30
2019-05-07T00:14:29.031Z,1007.33
2019-05-07T00:15:29.104Z,1007.34
2019-05-07T00:16:29.044Z,1007.35
2019-05-07T00:17:29.040Z,1007.33
2019-05-07T00:18:29.102Z,1007.34
2019-05-07T00:19:29.104Z,1007.33
2019-05-07T00:20:29.035Z,1007.32
2019-05-07T00:21:29.111Z,1007.30
2019-05-07T00:22:29.096Z,1007.27
2019-05-07T00:23:29.142Z,1007.28
2019-05-07T00:24:29.143Z,1007.31
2019-05-07T00:25:29.031Z,1007.30
2019-05-07T00:26:29.145Z,1007.31
2019-05-07T00:27:29.054Z,1007.35
2019-05-07T00:28:29.021Z,1007.30
2019-05-07T00:29:29.086Z,1007.30
2019-05-07T00:30:29.131Z,1007.30
2019-05-07T00:31:29.112Z,1007.28
2019-05-07T00:32:29.128Z,1007.28
2019-05-07T00:33:29.079Z,1007.30
2019-05-07T00:34:29.133Z,1007.29
2019-05-07T00:35:29.078Z,1007.28
2019-05-07T00:36:29.132Z,1007.32
2019-05-07T00:37:29.076Z,1007.27
2019-05-07T00:38:29.140Z,1007.29
2019-05-07T00:39:29.065Z,1007.34
2019-05-07T00:40:29.148Z,1007.30
2019-05-07T00:41:29.094Z,1007.30
2019-05-07T00:42:29.041Z,1007.32
2019-05-07T00:43:29.099Z,1007.37
2019-05-07T00:44:29.019Z,1007.32
2019-05-07T00:45:29.105Z,1007.34
2019-05-07T00:46:29.074Z,1007.32
2019-05-07T00:47:29.121Z,1007.33
2019-05-07T00:48:29.108Z,1007.32
2019-05-07T00:49:29.017Z,1007.36
2019-05-07T00:50:28.997Z,1007.38
2019-05-07T00:51:29.031Z,1007.34
2019-05-07T00:52:29.099Z,1007.34
2019-05-07T00:53:29.092Z,1007.35
2019-05-07T00:54:29.153Z,1007.36
2019-05-07T00:55:29.085Z,1007.36
2019-05-07T00:56:29.102Z,1007.39
2019-05-07T00:57:29.103Z,1007.37
2019-05-07T00:58:29.176Z,1007.40
2019-05-07T00:59:29.150Z,1007.41
2019-05-07T01:00:29.101Z,1007.39
2019-05-07T01:01:29.149Z,1007.38
2019-05-07T01:02:29.133Z,1007.39
2019-05-07T01:03:29.140Z,1007.39
2019-05-07T01:04:29.144Z,1007.39
2019-05-07T01:05:29.144Z,1007.39
2019-05-07T01:06:29.076Z,1007.38
2019-05-07T01:07:29.072Z,1007.39
2019-05-07T01:08:29.070Z,1007.34
2019-05-07T01:09:29.148Z,1007.33
2019-05-07T01:10:29.140Z,1007.33
2019-05-07T01:11:29.111Z,1007.35
2019-05-07T01:12:29.183Z,1007.35
2019-05-07T01:13:29.167Z,1007.32
2019-05-07T01:14:29.110Z,1007.31
2019-05-07T01:15:32.126Z,1007.35
2019-05-07T01:16:29.118Z,1007.31
2019-05-07T01:17:29.111Z,1007.31
2019-05-07T01:18:29.044Z,1007.30
2019-05-07T01:19:29.173Z,1007.29
2019-05-07T01:20:29.133Z,1007.31
2019-05-07T01:21:29.169Z,1007.32
2019-05-07T01:22:29.092Z,1007.31
2019-05-07T01:23:29.149Z,1007.27
2019-05-07T01:24:29.153Z,1007.33
2019-05-07T01:25:29.095Z,1007.31
2019-05-07T01:26:29.089Z,1007.35
2019-05-07T01:27:29.187Z,1007.38
2019-05-07T01:28:29.150Z,1007.37
2019-05-07T01:29:29.088Z,1007.32
2019-05-07T01:30:29.153Z,1007.37
2019-05-07T01:31:29.162Z,1007.37
2019-05-07T01:32:29.104Z,1007.36
2019-05-07T01:33:29.090Z,1007.39
2019-05-07T01:34:29.158Z,1007.36
2019-05-07T01:35:29.066Z,1007.40
2019-05-07T01:36:29.153Z,1007.42
2019-05-07T01:37:29.152Z,1007.44
2019-05-07T01:38:29.050Z,1007.36
2019-05-07T01:39:29.158Z,1007.45
2019-05-07T01:40:29.090Z,1007.46
2019-05-07T01:41:29.067Z,1007.44
2019-05-07T01:42:29.126Z,1007.49
2019-05-07T01:43:29.075Z,1007.44
2019-05-07T01:44:29.163Z,1007.49
2019-05-07T01:45:43.282Z,1007.52
2019-05-07T01:46:29.207Z,1007.50
2019-05-07T01:47:29.126Z,1007.52
2019-05-07T01:48:29.171Z,1007.53
2019-05-07T01:49:29.147Z,1007.48
2019-05-07T01:50:29.070Z,1007.54
2019-05-07T01:51:29.207Z,1007.53
2019-05-07T01:52:29.211Z,1007.54
2019-05-07T01:53:29.141Z,1007.52
2019-05-07T01:54:29.201Z,1007.53
2019-05-07T01:55:29.112Z,1007.54
2019-05-07T01:56:29.241Z,1007.52
2019-05-07T01:57:29.081Z,1007.50
2019-05-07T01:58:29.148Z,1007.47
2019-05-07T01:59:29.219Z,1007.48
2019-05-07T02:00:29.088Z,1007.49
2019-05-07T02:01:29.073Z,1007.48
2019-05-07T02:02:29.118Z,1007.48
2019-05-07T02:03:29.201Z,1007.47
2019-05-07T02:04:29.163Z,1007.47
2019-05-07T02:05:29.184Z,1007.49
2019-05-07T02:06:29.189Z,1007.49
2019-05-07T02:07:29.147Z,1007.50
2019-05-07T02:08:29.187Z,1007.49
2019-05-07T02:09:29.072Z,1007.52
2019-05-07T02:10:29.121Z,1007.50
2019-05-07T02:11:29.149Z,1007.51
2019-05-07T02:12:29.210Z,1007.53
2019-05-07T02:13:29.152Z,1007.54
2019-05-07T02:14:29.140Z,1007.51
2019-05-07T02:15:29.094Z,1007.50
2019-05-07T02:16:29.075Z,1007.53
2019-05-07T02:17:29.185Z,1007.57
2019-05-07T02:18:29.239Z,1007.55
2019-05-07T02:19:29.132Z,1007.52
2019-05-07T02:20:29.177Z,1007.55
2019-05-07T02:21:29.129Z,1007.51
2019-05-07T02:22:29.176Z,1007.49
2019-05-07T02:23:29.232Z,1007.51
2019-05-07T02:24:29.165Z,1007.55
2019-05-07T02:25:29.254Z,1007.55
2019-05-07T02:26:29.167Z,1007.55
2019-05-07T02:27:29.216Z,1007.52
2019-05-07T02:28:29.234Z,1007.55
2019-05-07T02:29:29.225Z,1007.54
2019-05-07T02:30:29.168Z,1007.53
2019-05-07T02:31:29.105Z,1007.54
2019-05-07T02:32:29.220Z,1007.58
2019-05-07T02:33:29.158Z,1007.55
2019-05-07T02:34:29.172Z,1007.53
2019-05-07T02:35:29.162Z,1007.56
2019-05-07T02:36:29.189Z,1007.54
2019-05-07T02:37:37.708Z,1007.58
2019-05-07T02:38:29.247Z,1007.56
2019-05-07T02:39:29.225Z,1007.54
2019-05-07T02:40:29.239Z,1007.56
2019-05-07T02:41:29.159Z,1007.55
2019-05-07T02:42:29.237Z,1007.53
2019-05-07T02:43:29.163Z,1007.55
2019-05-07T02:44:29.172Z,1007.56
2019-05-07T02:45:29.173Z,1007.56
2019-05-07T02:46:31.884Z,1007.55
2019-05-07T02:47:29.182Z,1007.54
2019-05-07T02:48:29.190Z,1007.52
2019-05-07T02:49:29.126Z,1007.55
2019-05-07T02:50:29.178Z,1007.53
2019-05-07T02:51:29.252Z,1007.56
2019-05-07T02:52:29.202Z,1007.55
2019-05-07T02:53:29.208Z,1007.57
2019-05-07T02:54:29.107Z,1007.57
2019-05-07T02:55:29.116Z,1007.54
2019-05-07T02:56:29.148Z,1007.55
2019-05-07T02:57:29.209Z,1007.59
2019-05-07T02:58:29.103Z,1007.58
2019-05-07T02:59:29.171Z,1007.65
2019-05-07T03:00:29.133Z,1007.62
2019-05-07T03:01:29.212Z,1007.62
2019-05-07T03:02:29.105Z,1007.64
2019-05-07T03:03:29.102Z,1007.63
2019-05-07T03:04:29.213Z,1007.59
2019-05-07T03:05:29.177Z,1007.61
2019-05-07T03:06:29.167Z,1007.59
2019-05-07T03:07:29.127Z,1007.56
2019-05-07T03:08:29.131Z,1007.57
2019-05-07T03:09:29.111Z,1007.57
2019-05-07T03:10:29.222Z,1007.59
2019-05-07T03:11:29.223Z,1007.59
2019-05-07T03:12:29.169Z,1007.59
2019-05-07T03:13:29.161Z,1007.61
2019-05-07T03:14:29.233Z,1007.60
2019-05-07T03:15:29.167Z,1007.62
2019-05-07T03:16:40.088Z,1007.58
2019-05-07T03:17:29.161Z,1007.57
2019-05-07T03:18:29.175Z,1007.59
2019-05-07T03:19:29.163Z,1007.58
2019-05-07T03:20:29.172Z,1007.53
2019-05-07T03:21:29.240Z,1007.56
2019-05-07T03:22:29.272Z,1007.61
2019-05-07T03:23:29.172Z,1007.64
2019-05-07T03:24:29.238Z,1007.58
2019-05-07T03:25:29.170Z,1007.57
2019-05-07T03:26:29.270Z,1007.52
2019-05-07T03:27:29.247Z,1007.56
2019-05-07T03:28:29.186Z,1007.57
2019-05-07T03:29:29.188Z,1007.52
2019-05-07T03:30:29.268Z,1007.58
2019-05-07T03:31:29.245Z,1007.55
2019-05-07T03:32:29.259Z,1007.59
2019-05-07T03:33:29.250Z,1007.58
2019-05-07T03:34:29.326Z,1007.55
2019-05-07T03:35:29.419Z,1007.56
2019-05-07T03:36:29.314Z,1007.55
2019-05-07T03:37:33.186Z,1007.54
2019-05-07T03:38:29.177Z,1007.59
2019-05-07T03:39:29.249Z,1007.62
2019-05-07T03:40:29.180Z,1007.62
2019-05-07T03:41:29.255Z,1007.61
2019-05-07T03:42:29.289Z,1007.67
2019-05-07T03:43:29.279Z,1007.68
2019-05-07T03:44:29.271Z,1007.67
2019-05-07T03:45:29.277Z,1007.69
2019-05-07T03:46:29.193Z,1007.72
2019-05-07T03:47:29.227Z,1007.71
2019-05-07T03:48:29.216Z,1007.71
2019-05-07T03:49:29.214Z,1007.71
2019-05-07T03:50:29.281Z,1007.74
2019-05-07T03:51:29.287Z,1007.78
2019-05-07T03:52:29.167Z,1007.79
2019-05-07T03:53:29.123Z,1007.77
2019-05-07T03:54:29.116Z,1007.73
2019-05-07T03:55:29.192Z,1007.76
2019-05-07T03:56:29.169Z,1007.78
2019-05-07T03:57:29.125Z,1007.75
2019-05-07T03:58:29.160Z,1007.73
2019-05-07T03:59:29.144Z,1007.74
2019-05-07T04:00:29.215Z,1007.74
2019-05-07T04:01:29.213Z,1007.72
2019-05-07T04:02:29.311Z,1007.76
2019-05-07T04:03:29.292Z,1007.75
2019-05-07T04:04:29.225Z,1007.74
2019-05-07T04:05:29.228Z,1007.73
2019-05-07T04:06:29.233Z,1007.73
2019-05-07T04:07:29.235Z,1007.76
2019-05-07T04:08:29.289Z,1007.76
2019-05-07T04:09:29.270Z,1007.76
2019-05-07T04:10:29.334Z,1007.73
2019-05-07T04:11:29.231Z,1007.76
2019-05-07T04:12:29.212Z,1007.78
2019-05-07T04:13:29.259Z,1007.81
2019-05-07T04:14:29.139Z,1007.81
2019-05-07T04:15:29.254Z,1007.85
2019-05-07T04:16:29.179Z,1007.83
2019-05-07T04:17:29.180Z,1007.85
2019-05-07T04:18:29.209Z,1007.87
2019-05-07T04:19:29.239Z,1007.87
2019-05-07T04:20:29.218Z,1007.88
2019-05-07T04:21:29.152Z,1007.90
2019-05-07T04:22:29.316Z,1007.85
2019-05-07T04:23:29.239Z,1007.84
2019-05-07T04:24:29.171Z,1007.88
2019-05-07T04:25:29.281Z,1007.87
2019-05-07T04:26:29.286Z,1007.89
2019-05-07T04:27:29.284Z,1007.89
2019-05-07T04:28:29.226Z,1007.88
2019-05-07T04:29:29.295Z,1007.90
2019-05-07T04:30:29.215Z,1007.91
2019-05-07T04:31:29.291Z,1007.89
2019-05-07T04:32:29.222Z,1007.87
2019-05-07T04:33:29.295Z,1007.88
2019-05-07T04:34:29.220Z,1007.89
2019-05-07T04:35:29.312Z,1007.84
2019-05-07T04:36:29.217Z,1007.91
2019-05-07T04:37:29.374Z,1007.92
2019-05-07T04:38:29.305Z,1007.93
2019-05-07T04:39:29.224Z,1007.90
2019-05-07T04:40:29.305Z,1007.88
2019-05-07T04:41:29.218Z,1007.87
2019-05-07T04:42:29.313Z,1007.85
2019-05-07T04:43:29.278Z,1007.85
2019-05-07T04:44:29.243Z,1007.85
2019-05-07T04:45:29.274Z,1007.84
2019-05-07T04:46:29.311Z,1007.86
2019-05-07T04:47:38.743Z,1007.89
2019-05-07T04:48:29.262Z,1007.91
2019-05-07T04:49:29.274Z,1007.87
2019-05-07T04:50:41.987Z,1007.89
2019-05-07T04:51:29.244Z,1007.87
2019-05-07T04:52:29.321Z,1007.87
2019-05-07T04:53:29.326Z,1007.86
2019-05-07T04:54:29.281Z,1007.89
2019-05-07T04:55:29.332Z,1007.88
2019-05-07T04:56:29.319Z,1007.91
2019-05-07T04:57:29.248Z,1007.91
2019-05-07T04:58:29.208Z,1007.89
2019-05-07T04:59:29.262Z,1007.90
2019-05-07T05:00:29.326Z,1007.91
2019-05-07T05:01:29.251Z,1007.94
2019-05-07T05:02:29.218Z,1007.95
2019-05-07T05:03:29.253Z,1007.93
2019-05-07T05:04:31.573Z,1007.94
2019-05-07T05:05:29.309Z,1007.92
2019-05-07T05:06:29.217Z,1007.96
2019-05-07T05:07:29.313Z,1007.95
2019-05-07T05:08:29.314Z,1007.94
2019-05-07T05:09:29.222Z,1007.95
2019-05-07T05:10:29.331Z,1007.95
2019-05-07T05:11:29.285Z,1007.95
2019-05-07T05:12:29.209Z,1007.96
2019-05-07T05:13:29.261Z,1007.95
2019-05-07T05:14:29.337Z,1007.92
2019-05-07T05:15:29.272Z,1007.90
2019-05-07T05:16:29.240Z,1007.91
2019-05-07T05:17:29.332Z,1007.92
2019-05-07T05:18:29.334Z,1007.93
2019-05-07T05:19:29.262Z,1007.94
2019-05-07T05:20:29.346Z,1007.97
2019-05-07T05:21:29.267Z,1007.96
2019-05-07T05:22:29.262Z,1007.93
2019-05-07T05:23:29.331Z,1007.95
2019-05-07T05:24:29.265Z,1007.95
2019-05-07T05:25:29.263Z,1007.95
2019-05-07T05:26:29.340Z,1008.00
2019-05-07T05:27:30.635Z,1007.94
2019-05-07T05:28:29.268Z,1007.97
2019-05-07T05:29:29.340Z,1007.97
2019-05-07T05:30:29.340Z,1007.99
2019-05-07T05:31:29.275Z,1008.04
2019-05-07T05:32:29.350Z,1008.01
2019-05-07T05:33:29.272Z,1007.99
2019-05-07T05:34:29.274Z,1008.02
2019-05-07T05:35:29.340Z,1008.04
2019-05-07T05:36:29.334Z,1008.01
2019-05-07T05:37:29.272Z,1008.04
2019-05-07T05:38:29.349Z,1008.05
2019-05-07T05:39:29.349Z,1008.04
2019-05-07T05:40:29.278Z,1008.04
2019-05-07T05:42:29.355Z,1008.06
2019-05-07T05:43:31.783Z,1008.03
2019-05-07T05:44:29.357Z,1008.04
2019-05-07T05:45:29.289Z,1008.08
2019-05-07T05:46:29.411Z,1008.07
2019-05-07T05:47:29.355Z,1008.07
2019-05-07T05:48:29.284Z,1008.08
2019-05-07T05:49:29.360Z,1008.05
2019-05-07T05:50:29.381Z,1008.05
2019-05-07T05:51:29.255Z,1008.02
2019-05-07T05:52:29.358Z,1008.05
2019-05-07T05:53:29.366Z,1008.04
2019-05-07T05:54:29.291Z,1008.04
2019-05-07T05:55:29.287Z,1008.03
2019-05-07T05:56:29.360Z,1008.07
2019-05-07T05:57:29.295Z,1008.04
2019-05-07T05:58:29.296Z,1008.03
2019-05-07T05:59:45.000Z,1008.01
2019-05-07T06:00:29.462Z,1008.03
2019-05-07T06:01:29.292Z,1008.03
2019-05-07T06:02:29.353Z,1008.03
2019-05-07T06:03:29.275Z,1008.05
2019-05-07T06:04:29.356Z,1008.07
2019-05-07T06:05:29.281Z,1008.03
2019-05-07T06:06:29.357Z,1008.05
2019-05-07T06:07:29.293Z,1008.06
2019-05-07T06:08:29.281Z,1008.08
2019-05-07T06:09:29.361Z,1008.07
2019-05-07T06:10:29.291Z,1008.09
2019-05-07T06:11:29.284Z,1008.10
2019-05-07T06:12:29.288Z,1008.10
2019-05-07T06:13:29.371Z,1008.09
2019-05-07T06:14:29.313Z,1008.06
2019-05-07T06:15:29.383Z,1008.03
2019-05-07T06:16:29.301Z,1008.07
2019-05-07T06:17:29.302Z,1008.04
2019-05-07T06:18:29.375Z,1008.09
2019-05-07T06:19:29.378Z,1008.04
2019-05-07T06:20:29.319Z,1008.06
2019-05-07T06:21:29.388Z,1008.02
2019-05-07T06:22:29.308Z,1008.04
2019-05-07T06:23:29.242Z,1008.08
2019-05-07T06:24:29.238Z,1008.09
2019-05-07T06:25:29.313Z,1008.11
2019-05-07T06:26:29.351Z,1008.06
2019-05-07T06:27:29.332Z,1008.07
2019-05-07T06:28:29.347Z,1008.08
2019-05-07T06:29:29.329Z,1008.09
2019-05-07T06:30:29.281Z,1008.04
2019-05-07T06:31:29.261Z,1008.07
2019-05-07T06:32:29.243Z,1008.06
2019-05-07T06:33:29.343Z,1008.07
2019-05-07T06:34:29.337Z,1008.06
2019-05-07T06:35:29.308Z,1008.08
2019-05-07T06:36:29.243Z,1008.08
2019-05-07T06:37:29.305Z,1008.10
2019-05-07T06:38:29.284Z,1008.12
2019-05-07T06:39:29.367Z,1008.11
2019-05-07T06:40:31.629Z,1008.15
2019-05-07T06:41:29.381Z,1008.15
2019-05-07T06:42:29.310Z,1008.17
2019-05-07T06:43:29.208Z,1008.16
2019-05-07T06:44:29.215Z,1008.18
2019-05-07T06:45:29.254Z,1008.17
2019-05-07T06:46:29.266Z,1008.17
2019-05-07T06:47:29.320Z,1008.18
2019-05-07T06:48:39.187Z,1008.17
2019-05-07T06:49:29.277Z,1008.18
2019-05-07T06:50:29.311Z,1008.16
2019-05-07T06:51:29.340Z,1008.15
2019-05-07T06:52:29.304Z,1008.16
2019-05-07T06:53:29.387Z,1008.15
2019-05-07T06:54:29.381Z,1008.14
2019-05-07T06:55:29.279Z,1008.13
2019-05-07T06:56:29.344Z,1008.15
2019-05-07T06:57:29.329Z,1008.17
2019-05-07T06:58:29.360Z,1008.16
2019-05-07T06:59:32.566Z,1008.16
2019-05-07T07:00:29.267Z,1008.15
2019-05-07T07:01:29.288Z,1008.17
2019-05-07T07:02:29.272Z,1008.13
2019-05-07T07:03:29.335Z,1008.17
2019-05-07T07:04:29.412Z,1008.16
2019-05-07T07:05:29.411Z,1008.19
2019-05-07T07:06:29.415Z,1008.15
2019-05-07T07:07:34.038Z,1008.21
2019-05-07T07:08:29.410Z,1008.19
2019-05-07T07:09:29.413Z,1008.18
2019-05-07T07:10:29.410Z,1008.17
2019-05-07T07:11:31.794Z,1008.18
2019-05-07T07:12:29.419Z,1008.17
2019-05-07T07:13:29.347Z,1008.17
2019-05-07T07:14:29.414Z,1008.15
2019-05-07T07:15:29.418Z,1008.12
2019-05-07T07:16:29.411Z,1008.13
2019-05-07T07:17:29.421Z,1008.13
2019-05-07T07:18:29.421Z,1008.13
2019-05-07T07:19:29.418Z,1008.09
2019-05-07T07:20:29.418Z,1008.08
2019-05-07T07:21:29.424Z,1008.11
2019-05-07T07:22:31.690Z,1008.11
2019-05-07T07:23:29.432Z,1008.10
2019-05-07T07:24:29.420Z,1008.10
2019-05-07T07:25:29.421Z,1008.10
2019-05-07T07:26:29.359Z,1008.11
2019-05-07T07:27:29.423Z,1008.11
2019-05-07T07:28:29.367Z,1008.11
2019-05-07T07:29:29.362Z,1008.08
2019-05-07T07:30:29.427Z,1008.11
2019-05-07T07:31:31.700Z,1008.10
2019-05-07T07:32:31.600Z,1008.10
2019-05-07T07:33:29.431Z,1008.02
2019-05-07T07:34:29.376Z,1008.01
2019-05-07T07:35:29.440Z,1008.05
2019-05-07T07:36:29.374Z,1008.02
2019-05-07T07:37:29.438Z,1008.05
2019-05-07T07:38:29.432Z,1008.06
2019-05-07T07:39:29.394Z,1008.07
2019-05-07T07:40:29.368Z,1008.11
2019-05-07T07:41:29.439Z,1008.08
2019-05-07T07:42:29.394Z,1008.08
2019-05-07T07:43:29.435Z,1008.08
2019-05-07T07:44:29.440Z,1008.10
2019-05-07T07:45:29.378Z,1008.08
2019-05-07T07:46:29.444Z,1008.06
2019-05-07T07:47:29.374Z,1008.09
2019-05-07T07:48:29.376Z,1008.10
2019-05-07T07:49:29.454Z,1008.09
2019-05-07T07:50:29.447Z,1008.08
2019-05-07T07:51:40.555Z,1008.07
2019-05-07T07:52:29.438Z,1008.09
2019-05-07T07:53:32.304Z,1008.09
2019-05-07T07:54:29.423Z,1008.10
2019-05-07T07:55:29.370Z,1008.07
2019-05-07T07:56:29.323Z,1008.11
2019-05-07T07:57:29.429Z,1008.09
2019-05-07T07:58:31.557Z,1008.09
2019-05-07T07:59:29.405Z,1008.09
2019-05-07T08:00:30.129Z,1008.08
2019-05-07T08:01:29.395Z,1008.06
2019-05-07T08:02:29.438Z,1008.06
2019-05-07T08:03:29.384Z,1008.08
2019-05-07T08:04:29.441Z,1008.08
2019-05-07T08:05:29.409Z,1008.03
2019-05-07T08:06:29.458Z,1008.02
2019-05-07T08:07:29.340Z,1008.03
2019-05-07T08:08:29.380Z,1008.05
2019-05-07T08:09:29.430Z,1008.07
2019-05-07T08:10:29.355Z,1008.03
2019-05-07T08:11:29.435Z,1008.03
2019-05-07T08:12:29.326Z,1008.03
2019-05-07T08:13:29.464Z,1008.00
2019-05-07T08:14:29.394Z,1008.03
2019-05-07T08:15:29.390Z,1008.02
2019-05-07T08:16:29.463Z,1007.97
2019-05-07T08:17:29.390Z,1008.03
2019-05-07T08:18:29.560Z,1007.97
2019-05-07T08:19:29.397Z,1008.00
2019-05-07T08:20:29.466Z,1008.00
2019-05-07T08:21:29.482Z,1007.99
2019-05-07T08:22:29.391Z,1007.98
2019-05-07T08:23:31.810Z,1007.94
2019-05-07T08:24:29.397Z,1007.96
2019-05-07T08:25:29.470Z,1007.94
2019-05-07T08:26:29.474Z,1007.94
2019-05-07T08:27:29.458Z,1007.93
2019-05-07T08:28:31.777Z,1007.93
2019-05-07T08:29:29.469Z,1007.92
2019-05-07T08:30:29.491Z,1007.92
2019-05-07T08:31:29.474Z,1007.88
2019-05-07T08:32:29.480Z,1007.85
2019-05-07T08:33:29.474Z,1007.88
2019-05-07T08:34:29.473Z,1007.87
2019-05-07T08:35:29.491Z,1007.86
2019-05-07T08:36:29.364Z,1007.86
2019-05-07T08:37:29.473Z,1007.79
2019-05-07T08:38:30.027Z,1007.80
2019-05-07T08:39:29.420Z,1007.81
2019-05-07T08:40:29.478Z,1007.79
2019-05-07T08:41:31.765Z,1007.82
2019-05-07T08:42:29.484Z,1007.82
2019-05-07T08:43:29.429Z,1007.79
2019-05-07T08:44:29.481Z,1007.81
2019-05-07T08:45:29.613Z,1007.82
2019-05-07T08:46:29.644Z,1007.75
2019-05-07T08:47:29.485Z,1007.79
2019-05-07T08:48:29.496Z,1007.76
2019-05-07T08:49:36.841Z,1007.78
2019-05-07T08:50:29.487Z,1007.73
2019-05-07T08:51:29.382Z,1007.66
2019-05-07T08:52:29.489Z,1007.69
2019-05-07T08:53:29.420Z,1007.67
2019-05-07T08:54:29.416Z,1007.71
2019-05-07T08:55:29.479Z,1007.68
2019-05-07T08:56:29.380Z,1007.69
2019-05-07T08:57:31.709Z,1007.70
2019-05-07T08:58:31.604Z,1007.71
2019-05-07T08:59:31.734Z,1007.72
2019-05-07T09:00:29.482Z,1007.69
2019-05-07T09:01:29.376Z,1007.74
2019-05-07T09:02:29.395Z,1007.73
2019-05-07T09:03:29.492Z,1007.67
2019-05-07T09:04:29.501Z,1007.70
2019-05-07T09:05:29.386Z,1007.70
2019-05-07T09:06:29.431Z,1007.68
2019-05-07T09:07:29.497Z,1007.65
2019-05-07T09:08:29.495Z,1007.68
2019-05-07T09:09:29.500Z,1007.67
2019-05-07T09:10:29.507Z,1007.69
2019-05-07T09:11:29.498Z,1007.67
2019-05-07T09:12:31.705Z,1007.66
2019-05-07T09:13:29.532Z,1007.70
2019-05-07T09:14:31.519Z,1007.68
2019-05-07T09:15:29.443Z,1007.66
2019-05-07T09:16:31.822Z,1007.67
2019-05-07T09:17:29.441Z,1007.69
2019-05-07T09:18:29.439Z,1007.67
2019-05-07T09:19:29.513Z,1007.67
2019-05-07T09:20:29.438Z,1007.66
2019-05-07T09:21:29.500Z,1007.64
2019-05-07T09:22:29.438Z,1007.67
2019-05-07T09:23:31.700Z,1007.68
2019-05-07T09:24:29.498Z,1007.69
2019-05-07T09:25:29.496Z,1007.64
2019-05-07T09:26:29.431Z,1007.65
2019-05-07T09:27:29.433Z,1007.64
2019-05-07T09:28:29.385Z,1007.63
2019-05-07T09:29:29.426Z,1007.63
2019-05-07T09:30:29.430Z,1007.58
2019-05-07T09:31:29.431Z,1007.57
2019-05-07T09:32:29.508Z,1007.55
2019-05-07T09:33:29.442Z,1007.56
2019-05-07T09:34:29.453Z,1007.56
2019-05-07T09:35:29.456Z,1007.50
2019-05-07T09:36:29.520Z,1007.53
2019-05-07T09:37:29.533Z,1007.53
2019-05-07T09:38:29.528Z,1007.47
2019-05-07T09:39:29.520Z,1007.49
2019-05-07T09:40:29.484Z,1007.48
2019-05-07T09:41:29.523Z,1007.51
2019-05-07T09:42:29.546Z,1007.46
2019-05-07T09:43:29.439Z,1007.49
2019-05-07T09:44:29.512Z,1007.46
2019-05-07T09:45:29.441Z,1007.46
2019-05-07T09:46:29.517Z,1007.45
2019-05-07T09:47:29.516Z,1007.45
2019-05-07T09:48:29.453Z,1007.44
2019-05-07T09:49:29.446Z,1007.40
2019-05-07T09:50:29.458Z,1007.42
2019-05-07T09:51:29.517Z,1007.38
2019-05-07T09:52:29.433Z,1007.40
2019-05-07T09:53:29.525Z,1007.43
2019-05-07T09:54:29.476Z,1007.43
2019-05-07T09:55:29.449Z,1007.43
2019-05-07T09:56:29.445Z,1007.40
2019-05-07T09:57:31.551Z,1007.38
2019-05-07T09:58:36.614Z,1007.40
2019-05-07T09:59:29.456Z,1007.36
2019-05-07T10:00:29.448Z,1007.38
2019-05-07T10:01:31.429Z,1007.37
2019-05-07T10:02:29.546Z,1007.31
2019-05-07T10:03:29.471Z,1007.36
2019-05-07T10:04:29.471Z,1007.37
2019-05-07T10:05:29.542Z,1007.39
2019-05-07T10:06:29.473Z,1007.38
2019-05-07T10:07:29.565Z,1007.35
2019-05-07T10:08:31.697Z,1007.38
2019-05-07T10:09:29.483Z,1007.37
2019-05-07T10:10:29.476Z,1007.33
2019-05-07T10:11:29.476Z,1007.32
2019-05-07T10:12:29.479Z,1007.27
2019-05-07T10:13:29.544Z,1007.30
2019-05-07T10:14:29.542Z,1007.28
2019-05-07T10:15:29.477Z,1007.25
2019-05-07T10:16:29.545Z,1007.28
2019-05-07T10:17:29.479Z,1007.29
2019-05-07T10:18:29.482Z,1007.32
2019-05-07T10:19:29.487Z,1007.32
2019-05-07T10:20:29.573Z,1007.30
2019-05-07T10:21:29.478Z,1007.30
2019-05-07T10:22:31.979Z,1007.29
2019-05-07T10:23:29.482Z,1007.27
2019-05-07T10:24:29.442Z,1007.26
2019-05-07T10:25:29.444Z,1007.20
2019-05-07T10:26:29.429Z,1007.21
2019-05-07T10:27:29.447Z,1007.16
2019-05-07T10:28:29.540Z,1007.21
2019-05-07T10:29:29.544Z,1007.18
2019-05-07T10:30:29.519Z,1007.18
2019-05-07T10:31:31.868Z,1007.23
2019-05-07T10:32:29.450Z,1007.19
2019-05-07T10:33:29.471Z,1007.23
2019-05-07T10:34:29.550Z,1007.24
2019-05-07T10:35:31.663Z,1007.18
2019-05-07T10:36:29.554Z,1007.13
2019-05-07T10:37:31.663Z,1007.17
2019-05-07T10:38:29.561Z,1007.17
2019-05-07T10:39:29.531Z,1007.17
2019-05-07T10:40:29.565Z,1007.18
2019-05-07T10:41:31.724Z,1007.17
2019-05-07T10:42:29.496Z,1007.12
2019-05-07T10:43:29.571Z,1007.11
2019-05-07T10:44:29.469Z,1007.15
2019-05-07T10:46:29.516Z,1007.05
2019-05-07T10:47:29.558Z,1007.08
2019-05-07T10:48:29.566Z,1007.11
2019-05-07T10:49:31.672Z,1007.08
2019-05-07T10:50:38.026Z,1007.07
2019-05-07T10:51:29.474Z,1007.09
2019-05-07T10:52:31.439Z,1007.04
2019-05-07T10:53:29.494Z,1007.06
2019-05-07T10:54:29.577Z,1007.03
2019-05-07T10:55:29.506Z,1007.04
2019-05-07T10:56:29.509Z,1007.02
2019-05-07T10:57:29.579Z,1006.99
2019-05-07T10:58:29.518Z,1007.02
2019-05-07T10:59:29.577Z,1006.94
2019-05-07T11:00:29.511Z,1006.92
2019-05-07T11:01:29.507Z,1006.91
2019-05-07T11:02:29.582Z,1006.92
2019-05-07T11:03:29.583Z,1006.89
2019-05-07T11:04:40.106Z,1006.93
2019-05-07T11:05:29.519Z,1006.87
2019-05-07T11:06:29.516Z,1006.92
2019-05-07T11:07:29.584Z,1006.92
2019-05-07T11:08:29.565Z,1006.88
2019-05-07T11:09:29.516Z,1006.83
2019-05-07T11:10:29.586Z,1006.81
2019-05-07T11:11:31.762Z,1006.79
2019-05-07T11:12:31.805Z,1006.82
2019-05-07T11:13:29.522Z,1006.76
2019-05-07T11:14:29.469Z,1006.76
2019-05-07T11:15:29.456Z,1006.74
2019-05-07T11:16:29.451Z,1006.72
2019-05-07T11:17:29.535Z,1006.71
2019-05-07T11:18:29.510Z,1006.71
2019-05-07T11:19:29.474Z,1006.72
2019-05-07T11:20:30.019Z,1006.70
2019-05-07T11:21:29.546Z,1006.74
2019-05-07T11:22:29.456Z,1006.69
2019-05-07T11:23:29.509Z,1006.67
2019-05-07T11:24:29.598Z,1006.68
2019-05-07T11:25:29.603Z,1006.62
2019-05-07T11:26:29.606Z,1006.62
2019-05-07T11:27:29.597Z,1006.61
2019-05-07T11:28:29.535Z,1006.63
2019-05-07T11:29:29.605Z,1006.60
2019-05-07T11:30:29.608Z,1006.59
2019-05-07T11:31:29.552Z,1006.54
2019-05-07T11:32:29.604Z,1006.53
2019-05-07T11:33:29.602Z,1006.56
2019-05-07T11:34:29.642Z,1006.50
2019-05-07T11:35:31.701Z,1006.52
2019-05-07T11:36:29.533Z,1006.46
2019-05-07T11:37:29.577Z,1006.47
2019-05-07T11:38:29.607Z,1006.51
2019-05-07T11:39:29.617Z,1006.48
2019-05-07T11:40:32.235Z,1006.48
2019-05-07T11:41:29.541Z,1006.42
2019-05-07T11:42:29.618Z,1006.46
2019-05-07T11:43:29.611Z,1006.42
2019-05-07T11:44:29.564Z,1006.39
2019-05-07T11:45:29.534Z,1006.40
2019-05-07T11:46:29.602Z,1006.40
2019-05-07T11:47:31.726Z,1006.37
2019-05-07T11:48:29.542Z,1006.37
2019-05-07T11:49:29.538Z,1006.36
2019-05-07T11:50:29.516Z,1006.34
2019-05-07T11:51:29.530Z,1006.36
2019-05-07T11:52:32.321Z,1006.35
2019-05-07T11:53:29.507Z,1006.32
2019-05-07T11:54:31.679Z,1006.32
2019-05-07T11:55:29.575Z,1006.35
2019-05-07T11:56:29.552Z,1006.30
2019-05-07T11:57:29.535Z,1006.31
2019-05-07T11:58:29.553Z,1006.29
2019-05-07T11:59:29.480Z,1006.35
2019-05-07T12:00:29.525Z,1006.26
2019-05-07T12:01:43.049Z,1006.27
2019-05-07T12:02:31.917Z,1006.27
2019-05-07T12:03:29.503Z,1006.28
2019-05-07T12:04:31.872Z,1006.26
2019-05-07T12:05:29.618Z,1006.27
2019-05-07T12:06:29.543Z,1006.23
2019-05-07T12:07:29.619Z,1006.17